Time;durP1;ratioP1;P1;durP2;ratioP2;P2;SDS_P1;SDS_P2;PMS_P1;PMS_P2;Temp;Humidity;BMP_temperature;BMP_pressure;BME280_temperature;BME280_humidity;BME280_pressure;Samples;Min_cycle;Max_cycle;Signal;HPM_P1;HPM_P2
2023/07/04 00:02:24;;;;;;;27.13;6.03;;;27.20;44.10;;;;;;5030715;28;20209;-69
2023/07/04 00:04:51;;;;;;;33.47;6.90;;;27.20;44.20;;;;;;5042316;28;20238;-65
2023/07/04 00:07:21;;;;;;;46.07;8.13;;;27.20;44.20;;;;;;5025249;28;20210;-65
2023/07/04 00:09:48;;;;;;;28.13;6.67;;;27.20;44.80;;;;;;5018477;28;20208;-69
2023/07/04 00:12:15;;;;;;;38.53;7.07;;;27.20;44.20;;;;;;5016996;28;20205;-65
2023/07/04 00:14:43;;;;;;;56.13;9.10;;;27.20;44.20;;;;;;5026105;28;20891;-66
2023/07/04 00:17:10;;;;;;;33.70;6.40;;;27.20;44.30;;;;;;5025161;28;20199;-67
2023/07/04 00:19:38;;;;;;;45.07;8.13;;;27.20;44.30;;;;;;5037086;28;20220;-65
2023/07/04 00:22:05;;;;;;;34.20;6.67;;;27.20;44.30;;;;;;5030762;28;20247;-65
2023/07/04 00:24:32;;;;;;;33.67;6.90;;;27.20;44.30;;;;;;5035144;28;20230;-66
2023/07/04 00:26:59;;;;;;;33.93;6.87;;;27.20;44.30;;;;;;5009720;28;21007;-69
2023/07/04 00:29:26;;;;;;;60.80;9.73;;;27.20;44.30;;;;;;5022483;28;20197;-68
2023/07/04 00:31:53;;;;;;;44.97;7.53;;;27.20;44.40;;;;;;5033244;28;20740;-68
2023/07/04 00:34:20;;;;;;;42.97;7.33;;;27.20;44.40;;;;;;5033418;28;20740;-68
2023/07/04 00:36:49;;;;;;;31.63;6.67;;;27.20;44.40;;;;;;4973976;28;1075662;-68
2023/07/04 00:39:16;;;;;;;34.83;7.30;;;27.20;44.50;;;;;;5030038;28;20232;-67
2023/07/04 00:41:43;;;;;;;33.33;6.97;;;27.10;44.40;;;;;;5024054;28;20201;-66
2023/07/04 00:44:19;;;;;;;26.37;6.00;;;27.10;44.40;;;;;;5022948;28;20216;-68
2023/07/04 00:46:53;;;;;;;30.33;6.63;;;27.20;44.50;;;;;;5022499;28;20193;-69
2023/07/04 00:49:26;;;;;;;46.27;7.93;;;27.10;44.50;;;;;;5018092;28;20295;-67
2023/07/04 00:52:04;;;;;;;24.40;6.43;;;27.10;44.50;;;;;;5017762;28;20307;-67
2023/07/04 00:54:35;;;;;;;47.00;8.20;;;27.10;44.60;;;;;;5028071;28;20222;-66
2023/07/04 00:57:04;;;;;;;29.23;6.57;;;27.20;44.60;;;;;;5028812;28;20197;-71
2023/07/04 00:59:33;;;;;;;51.77;8.50;;;27.10;44.50;;;;;;5034267;28;20228;-66
2023/07/04 01:02:00;;;;;;;36.63;7.07;;;27.10;44.60;;;;;;5035045;28;20203;-66
2023/07/04 01:04:27;;;;;;;33.23;7.43;;;27.10;44.60;;;;;;5038010;28;20208;-68
2023/07/04 01:07:03;;;;;;;32.70;7.03;;;27.10;44.60;;;;;;5034555;28;20814;-65
2023/07/04 01:09:31;;;;;;;35.00;6.77;;;27.10;44.60;;;;;;5032698;28;20201;-69
2023/07/04 01:12:01;;;;;;;31.60;7.03;;;27.10;44.60;;;;;;5040862;28;20269;-69
2023/07/04 01:14:29;;;;;;;34.40;6.77;;;27.10;44.70;;;;;;5020206;28;20222;-66
2023/07/04 01:16:56;;;;;;;30.57;6.63;;;27.10;44.70;;;;;;5038989;28;20296;-68
2023/07/04 01:19:28;;;;;;;43.23;7.33;;;27.10;44.70;;;;;;5038722;28;20200;-65
2023/07/04 01:22:07;;;;;;;57.80;8.83;;;27.10;44.70;;;;;;5032008;28;20646;-65
2023/07/04 01:24:44;;;;;;;33.27;6.77;;;27.10;44.80;;;;;;5039931;28;20204;-66
2023/07/04 01:27:14;;;;;;;33.73;6.83;;;27.10;44.80;;;;;;5040028;28;20212;-67
2023/07/04 01:29:41;;;;;;;31.93;6.43;;;27.10;44.80;;;;;;5026233;28;20218;-66
2023/07/04 01:32:09;;;;;;;37.73;7.50;;;27.10;44.70;;;;;;5039623;28;20839;-65
2023/07/04 01:34:36;;;;;;;32.90;6.40;;;27.10;44.80;;;;;;5024856;28;20251;-67
2023/07/04 01:37:04;;;;;;;42.07;8.03;;;27.00;44.80;;;;;;5039392;28;20201;-69
2023/07/04 01:39:31;;;;;;;26.70;6.50;;;27.00;44.80;;;;;;5030463;28;20319;-64
2023/07/04 01:41:58;;;;;;;50.70;8.60;;;27.00;44.80;;;;;;5045719;28;20193;-64
2023/07/04 01:44:26;;;;;;;30.70;6.60;;;27.00;44.80;;;;;;5041359;28;20211;-65
2023/07/04 01:46:53;;;;;;;34.93;6.97;;;27.00;44.80;;;;;;5022452;28;20205;-65
2023/07/04 01:49:20;;;;;;;28.23;6.47;;;27.00;44.80;;;;;;5021365;28;20218;-70
2023/07/04 01:51:47;;;;;;;31.77;6.90;;;27.10;44.90;;;;;;5017992;28;20197;-67
2023/07/04 01:54:17;;;;;;;25.50;6.23;;;27.00;44.80;;;;;;5014901;28;20275;-64
2023/07/04 01:56:47;;;;;;;47.17;8.13;;;27.00;44.90;;;;;;5026673;28;20206;-65
2023/07/04 01:59:14;;;;;;;23.83;6.03;;;27.00;45.00;;;;;;5024323;28;20260;-66
2023/07/04 02:01:43;;;;;;;23.77;6.37;;;27.00;45.00;;;;;;5021866;28;20241;-67
2023/07/04 02:04:10;;;;;;;50.10;8.17;;;27.00;45.00;;;;;;5022240;28;20209;-66
2023/07/04 02:06:37;;;;;;;30.53;6.67;;;27.00;45.00;;;;;;5023251;28;20205;-64
2023/07/04 02:09:04;;;;;;;47.83;7.87;;;27.00;45.00;;;;;;5027303;28;20197;-65
2023/07/04 02:11:31;;;;;;;30.13;6.63;;;27.00;45.00;;;;;;5025631;28;20208;-66
2023/07/04 02:14:00;;;;;;;43.40;8.00;;;27.00;45.00;;;;;;5028203;28;20229;-71
2023/07/04 02:16:27;;;;;;;38.30;7.10;;;27.00;45.00;;;;;;5015553;28;20272;-65
2023/07/04 02:18:55;;;;;;;28.03;6.13;;;27.00;45.00;;;;;;5025970;28;20200;-65
2023/07/04 02:21:22;;;;;;;35.73;7.17;;;27.00;45.00;;;;;;5031833;28;20232;-64
2023/07/04 02:23:49;;;;;;;40.03;7.87;;;27.00;45.00;;;;;;5041879;28;20201;-65
2023/07/04 02:26:16;;;;;;;45.43;7.97;;;27.00;45.00;;;;;;5039188;28;20203;-67
2023/07/04 02:28:43;;;;;;;26.50;6.17;;;26.90;45.10;;;;;;5028871;28;20207;-65
2023/07/04 02:31:09;;;;;;;39.87;7.33;;;26.90;45.00;;;;;;5042260;28;20223;-65
2023/07/04 02:33:36;;;;;;;31.93;7.13;;;26.90;45.00;;;;;;5037389;28;20210;-67
2023/07/04 02:36:05;;;;;;;35.30;7.07;;;26.90;45.10;;;;;;5044008;28;20220;-64
2023/07/04 02:38:32;;;;;;;27.83;6.17;;;26.90;45.10;;;;;;5042530;28;20208;-66
2023/07/04 02:40:59;;;;;;;42.63;8.07;;;26.90;45.10;;;;;;5024442;28;20259;-68
2023/07/04 02:43:25;;;;;;;32.37;7.20;;;26.90;45.10;;;;;;5013647;28;20205;-68
2023/07/04 02:45:52;;;;;;;24.90;6.37;;;26.90;45.10;;;;;;5045147;28;20204;-65
2023/07/04 02:48:20;;;;;;;34.17;7.17;;;26.90;45.20;;;;;;5019186;28;20209;-65
2023/07/04 02:50:47;;;;;;;32.77;6.97;;;26.90;45.20;;;;;;5023015;28;20573;-65
2023/07/04 02:53:20;;;;;;;27.47;6.80;;;26.90;45.20;;;;;;5017584;28;20209;-67
2023/07/04 02:55:47;;;;;;;32.43;7.23;;;26.90;45.30;;;;;;5012583;28;20566;-66
2023/07/04 02:58:15;;;;;;;30.30;6.40;;;26.90;45.20;;;;;;5026180;28;20201;-65
2023/07/04 03:00:42;;;;;;;31.90;6.67;;;26.90;45.30;;;;;;5029513;28;20220;-67
2023/07/04 03:03:09;;;;;;;24.50;5.90;;;26.90;45.30;;;;;;5014050;28;20741;-65
2023/07/04 03:05:36;;;;;;;35.63;7.43;;;26.90;45.30;;;;;;5027182;28;20204;-65
2023/07/04 03:08:03;;;;;;;39.30;7.93;;;26.90;45.30;;;;;;5029009;28;20988;-65
2023/07/04 03:10:32;;;;;;;42.63;7.77;;;26.80;45.20;;;;;;5018643;28;20207;-68
2023/07/04 03:12:58;;;;;;;33.63;7.23;;;26.80;45.30;;;;;;5028361;28;20197;-65
2023/07/04 03:15:26;;;;;;;52.97;8.47;;;26.80;45.30;;;;;;5025960;28;20196;-66
2023/07/04 03:17:53;;;;;;;33.20;6.60;;;26.80;45.30;;;;;;5017674;28;20662;-69
2023/07/04 03:20:20;;;;;;;34.27;6.60;;;26.80;45.30;;;;;;5022801;28;20221;-66
2023/07/04 03:22:47;;;;;;;30.50;6.70;;;26.80;45.30;;;;;;5021690;28;20204;-67
2023/07/04 03:25:15;;;;;;;41.10;7.73;;;26.80;45.30;;;;;;5032176;28;20203;-70
2023/07/04 03:27:44;;;;;;;27.20;6.17;;;26.80;45.40;;;;;;5047800;28;20200;-66
2023/07/04 03:30:12;;;;;;;31.87;6.57;;;26.80;45.40;;;;;;5032492;28;20335;-66
2023/07/04 03:32:39;;;;;;;27.70;6.47;;;26.80;45.40;;;;;;5045172;28;20213;-65
2023/07/04 03:35:07;;;;;;;21.27;5.87;;;26.80;45.40;;;;;;5047704;28;20200;-68
2023/07/04 03:37:35;;;;;;;34.90;6.93;;;26.80;45.40;;;;;;5028355;28;20208;-64
2023/07/04 03:40:06;;;;;;;32.97;7.27;;;26.80;45.50;;;;;;5036053;28;20575;-69
2023/07/04 03:42:34;;;;;;;26.47;6.10;;;26.80;45.50;;;;;;5030882;28;20287;-69
2023/07/04 03:45:02;;;;;;;29.10;6.43;;;26.80;45.50;;;;;;5019142;28;20193;-68
2023/07/04 03:47:29;;;;;;;43.60;7.67;;;26.80;45.50;;;;;;5018376;28;20205;-65
2023/07/04 03:49:56;;;;;;;33.20;6.73;;;26.80;45.50;;;;;;5023460;28;20271;-65
2023/07/04 03:52:23;;;;;;;48.40;8.40;;;26.80;45.50;;;;;;5029307;28;20541;-67
2023/07/04 03:54:50;;;;;;;47.27;7.97;;;26.80;45.50;;;;;;5023499;28;20670;-65
2023/07/04 03:57:17;;;;;;;25.57;5.80;;;26.80;45.60;;;;;;5046568;28;20192;-66
2023/07/04 03:59:44;;;;;;;23.53;5.97;;;26.70;45.50;;;;;;5045883;28;20223;-68
2023/07/04 04:02:12;;;;;;;45.20;7.60;;;26.70;45.50;;;;;;5037510;28;20664;-65
2023/07/04 04:04:40;;;;;;;38.27;7.50;;;26.70;45.60;;;;;;5032538;28;20199;-66
2023/07/04 04:07:08;;;;;;;30.57;6.20;;;26.80;45.60;;;;;;5032460;28;20217;-68
2023/07/04 04:09:35;;;;;;;26.33;6.30;;;26.70;45.60;;;;;;5025001;28;20204;-66
2023/07/04 04:12:02;;;;;;;36.83;7.07;;;26.70;45.60;;;;;;5020927;28;20979;-64
2023/07/04 04:14:30;;;;;;;23.73;5.90;;;26.70;45.60;;;;;;5038576;28;20224;-70
2023/07/04 04:16:57;;;;;;;25.90;6.20;;;26.70;45.60;;;;;;5035682;28;20201;-69
2023/07/04 04:19:25;;;;;;;34.27;6.83;;;26.70;45.60;;;;;;5035688;28;20250;-64
2023/07/04 04:21:52;;;;;;;43.67;7.37;;;26.70;45.60;;;;;;5036021;28;20256;-69
2023/07/04 04:24:19;;;;;;;38.73;7.40;;;26.70;45.60;;;;;;5038252;28;20259;-70
2023/07/04 04:26:47;;;;;;;30.70;6.73;;;26.70;45.60;;;;;;5027565;28;20896;-66
2023/07/04 04:29:15;;;;;;;27.00;6.13;;;26.70;45.60;;;;;;5028978;28;20247;-66
2023/07/04 04:31:42;;;;;;;33.33;6.60;;;26.70;45.60;;;;;;5036883;28;20292;-69
2023/07/04 04:34:09;;;;;;;28.77;6.70;;;26.70;45.60;;;;;;5031423;28;20196;-65
2023/07/04 04:36:37;;;;;;;36.50;6.97;;;26.70;45.60;;;;;;5038199;28;20267;-65
2023/07/04 04:39:05;;;;;;;48.43;8.43;;;26.70;45.60;;;;;;5017860;28;20209;-69
2023/07/04 04:41:32;;;;;;;39.63;6.77;;;26.70;45.60;;;;;;5046891;28;20232;-65
2023/07/04 04:44:04;;;;;;;37.97;7.10;;;26.70;45.60;;;;;;5027327;28;20197;-64
2023/07/04 04:46:31;;;;;;;37.20;6.90;;;26.70;45.60;;;;;;5038585;28;20496;-66
2023/07/04 04:49:02;;;;;;;33.67;6.60;;;26.60;45.80;;;;;;5026742;28;20209;-64
2023/07/04 04:51:30;;;;;;;46.43;8.47;;;26.60;45.80;;;;;;5041606;28;20299;-64
2023/07/04 04:54:00;;;;;;;23.27;5.97;;;26.60;45.80;;;;;;5015314;28;20993;-65
2023/07/04 04:56:28;;;;;;;25.13;6.20;;;26.70;45.80;;;;;;5033110;28;20196;-64
2023/07/04 04:58:56;;;;;;;31.07;6.77;;;26.70;45.70;;;;;;5037262;28;20211;-64
2023/07/04 05:01:24;;;;;;;21.67;5.90;;;26.70;45.70;;;;;;5032996;28;20300;-64
2023/07/04 05:03:53;;;;;;;43.83;7.73;;;26.70;45.80;;;;;;5029943;28;20201;-63
2023/07/04 05:06:20;;;;;;;30.30;6.63;;;26.60;45.60;;;;;;5036128;28;20208;-64
2023/07/04 05:08:47;;;;;;;36.63;7.10;;;26.70;45.80;;;;;;5040802;28;20205;-65
2023/07/04 05:11:16;;;;;;;47.00;8.40;;;26.70;45.80;;;;;;5022991;28;20212;-64
2023/07/04 05:13:45;;;;;;;30.67;6.40;;;26.60;45.80;;;;;;5045253;28;20225;-69
2023/07/04 05:16:14;;;;;;;51.70;8.33;;;26.70;45.80;;;;;;5040500;28;20210;-66
2023/07/04 05:18:42;;;;;;;29.20;6.87;;;26.60;45.80;;;;;;5019367;28;20205;-66
2023/07/04 05:21:11;;;;;;;28.07;6.47;;;26.60;45.80;;;;;;5044460;28;20247;-65
2023/07/04 05:23:39;;;;;;;35.60;7.27;;;26.70;45.80;;;;;;5021424;28;20200;-70
2023/07/04 05:26:07;;;;;;;36.90;7.40;;;26.60;45.80;;;;;;5041782;28;20212;-66
2023/07/04 05:28:36;;;;;;;42.93;7.80;;;26.60;45.80;;;;;;5020542;28;20205;-69
2023/07/04 05:31:05;;;;;;;38.17;7.03;;;26.60;45.80;;;;;;5044426;28;20204;-65
2023/07/04 05:33:33;;;;;;;41.27;7.77;;;26.60;45.80;;;;;;5039383;28;20208;-64
2023/07/04 05:36:04;;;;;;;30.60;6.37;;;26.60;45.90;;;;;;5048293;28;20212;-65
2023/07/04 05:38:31;;;;;;;68.13;9.77;;;26.60;45.90;;;;;;5039731;28;20208;-71
2023/07/04 05:40:58;;;;;;;33.90;6.67;;;26.60;45.80;;;;;;5049808;28;20224;-64
2023/07/04 05:43:25;;;;;;;35.80;7.07;;;26.60;45.90;;;;;;5038115;28;20204;-66
2023/07/04 05:45:55;;;;;;;25.57;5.60;;;26.60;45.90;;;;;;5025986;28;20201;-71
2023/07/04 05:48:22;;;;;;;47.57;7.70;;;26.60;45.90;;;;;;5049171;28;20200;-66
2023/07/04 05:50:54;;;;;;;33.33;6.67;;;26.60;45.90;;;;;;5024256;28;20207;-65
2023/07/04 05:53:23;;;;;;;36.70;7.33;;;26.60;46.00;;;;;;5043375;28;20206;-65
2023/07/04 05:55:51;;;;;;;34.87;6.70;;;26.60;46.00;;;;;;5036222;28;20212;-69
2023/07/04 05:58:18;;;;;;;75.23;10.63;;;26.60;46.00;;;;;;5039077;28;20672;-66
2023/07/04 06:00:47;;;;;;;31.63;6.60;;;26.60;46.00;;;;;;5018340;28;20201;-66
2023/07/04 06:03:17;;;;;;;50.10;7.77;;;26.60;46.00;;;;;;5035817;28;20746;-65
2023/07/04 06:05:45;;;;;;;64.83;9.33;;;26.60;46.00;;;;;;5036697;28;20196;-65
2023/07/04 06:08:11;;;;;;;28.67;6.43;;;26.60;46.00;;;;;;5035650;28;20204;-65
2023/07/04 06:10:38;;;;;;;29.63;6.27;;;26.60;46.10;;;;;;5038365;28;20197;-71
2023/07/04 06:13:05;;;;;;;26.80;6.17;;;26.70;46.20;;;;;;5030087;28;20233;-66
2023/07/04 06:15:32;;;;;;;37.73;7.30;;;26.60;46.10;;;;;;5020220;28;20202;-65
2023/07/04 06:17:59;;;;;;;37.67;6.73;;;26.60;46.00;;;;;;5030825;28;20287;-68
2023/07/04 06:20:27;;;;;;;29.33;6.17;;;26.60;46.00;;;;;;5043858;28;20208;-67
2023/07/04 06:22:55;;;;;;;25.80;6.00;;;26.70;46.10;;;;;;5029864;28;20316;-70
2023/07/04 06:25:22;;;;;;;30.30;5.90;;;26.60;46.00;;;;;;5015835;28;20204;-68
2023/07/04 06:27:49;;;;;;;41.67;7.53;;;26.60;46.00;;;;;;5011182;28;20205;-66
2023/07/04 06:30:16;;;;;;;27.90;6.10;;;26.60;46.00;;;;;;5035475;28;20201;-66
2023/07/04 06:32:43;;;;;;;27.97;6.80;;;26.60;46.00;;;;;;5027821;28;20864;-65
2023/07/04 06:35:10;;;;;;;61.33;12.47;;;26.60;46.00;;;;;;5035411;28;20200;-67
2023/07/04 06:37:39;;;;;;;53.17;14.20;;;26.60;46.00;;;;;;5029698;28;20224;-65
2023/07/04 06:40:08;;;;;;;75.53;19.93;;;26.60;46.10;;;;;;5025468;28;20213;-73
2023/07/04 06:42:35;;;;;;;95.83;22.37;;;26.60;46.10;;;;;;5013792;28;20232;-76
2023/07/04 06:45:01;;;;;;;78.83;20.03;;;26.60;46.20;;;;;;5016815;28;20200;-65
2023/07/04 06:47:28;;;;;;;54.03;14.73;;;26.60;46.10;;;;;;5026894;28;20224;-65
2023/07/04 06:49:55;;;;;;;61.90;12.27;;;26.60;46.20;;;;;;5014044;28;20197;-65
2023/07/04 06:52:22;;;;;;;58.70;12.10;;;26.60;46.20;;;;;;5028425;28;20197;-64
2023/07/04 06:54:52;;;;;;;37.50;10.70;;;26.60;46.10;;;;;;5026774;28;20204;-65
2023/07/04 06:57:18;;;;;;;37.80;9.57;;;26.60;46.10;;;;;;5009349;28;20224;-71
2023/07/04 06:59:46;;;;;;;45.17;9.43;;;26.60;46.10;;;;;;5009638;28;20201;-67
2023/07/04 07:02:14;;;;;;;33.50;8.60;;;26.60;46.10;;;;;;5024054;28;20256;-75
2023/07/04 07:04:42;;;;;;;40.07;8.90;;;26.50;46.00;;;;;;5028903;28;20223;-73
2023/07/04 07:07:10;;;;;;;34.07;8.57;;;26.50;46.10;;;;;;5029190;28;20201;-74
2023/07/04 07:09:40;;;;;;;35.50;8.50;;;26.50;46.00;;;;;;5023661;28;20208;-70
2023/07/04 07:12:09;;;;;;;26.70;6.67;;;26.50;46.00;;;;;;5024336;28;20201;-64
2023/07/04 07:14:38;;;;;;;34.10;8.17;;;26.50;46.00;;;;;;5027725;28;20228;-66
2023/07/04 07:17:05;;;;;;;39.27;8.53;;;26.50;46.10;;;;;;5023739;28;20209;-72
2023/07/04 07:19:32;;;;;;;38.47;7.77;;;26.40;46.00;;;;;;5026965;28;20204;-70
2023/07/04 07:21:59;;;;;;;30.63;7.17;;;26.50;46.10;;;;;;5029026;28;20216;-75
2023/07/04 07:24:26;;;;;;;38.80;7.50;;;26.50;46.10;;;;;;5019784;28;20210;-64
2023/07/04 07:26:53;;;;;;;27.33;6.90;;;26.50;46.10;;;;;;5026543;28;20201;-64
2023/07/04 07:29:22;;;;;;;33.20;7.20;;;26.40;46.00;;;;;;5026879;28;20204;-73
2023/07/04 07:31:50;;;;;;;36.23;7.33;;;26.40;46.00;;;;;;5025842;28;20663;-71
2023/07/04 07:34:17;;;;;;;30.10;7.00;;;26.40;46.00;;;;;;5026152;28;20270;-73
2023/07/04 07:36:44;;;;;;;29.27;6.43;;;26.40;46.10;;;;;;5023109;28;20212;-75
2023/07/04 07:39:14;;;;;;;28.37;6.20;;;26.40;46.10;;;;;;5022873;28;20216;-71
2023/07/04 07:41:43;;;;;;;39.10;7.70;;;26.40;46.10;;;;;;5025746;28;20220;-72
2023/07/04 07:44:11;;;;;;;72.60;9.90;;;26.40;46.10;;;;;;5008174;28;20205;-75
2023/07/04 07:46:39;;;;;;;44.30;8.27;;;26.40;46.10;;;;;;5018235;28;20208;-75
2023/07/04 07:49:06;;;;;;;35.23;7.07;;;26.40;46.20;;;;;;5016454;28;20248;-74
2023/07/04 07:51:34;;;;;;;30.33;6.30;;;26.40;46.20;;;;;;5008406;28;20679;-74
2023/07/04 07:54:02;;;;;;;72.30;10.20;;;26.40;46.20;;;;;;5021478;28;20568;-74
2023/07/04 07:56:33;;;;;;;31.40;6.27;;;26.40;46.30;;;;;;5036458;28;20531;-70
2023/07/04 07:59:00;;;;;;;46.77;7.37;;;26.40;46.30;;;;;;5027870;28;20193;-69
2023/07/04 08:01:31;;;;;;;31.07;5.90;;;26.40;46.30;;;;;;5028346;28;20228;-76
2023/07/04 08:03:59;;;;;;;36.80;7.00;;;26.40;46.30;;;;;;5037217;28;20200;-74
2023/07/04 08:06:29;;;;;;;25.27;5.77;;;26.40;46.20;;;;;;5035695;28;20950;-73
2023/07/04 08:08:59;;;;;;;45.67;7.47;;;26.40;46.30;;;;;;5023639;28;21019;-73
2023/07/04 08:11:27;;;;;;;30.87;6.20;;;26.50;46.30;;;;;;5008318;28;20205;-74
2023/07/04 08:13:54;;;;;;;27.00;5.47;;;26.50;46.30;;;;;;5008144;28;20243;-73
2023/07/04 08:16:22;;;;;;;36.90;6.80;;;26.50;46.30;;;;;;5023243;28;20208;-69
2023/07/04 08:18:49;;;;;;;33.83;6.73;;;26.50;46.30;;;;;;5023233;28;20193;-71
2023/07/04 08:21:18;;;;;;;62.90;9.13;;;26.50;46.30;;;;;;5020329;28;20201;-73
2023/07/04 08:23:45;;;;;;;40.37;7.10;;;26.50;46.20;;;;;;5038004;28;20223;-69
2023/07/04 08:26:16;;;;;;;33.30;6.53;;;26.60;46.30;;;;;;5022613;28;21154;-70
2023/07/04 08:28:43;;;;;;;21.10;5.27;;;26.60;46.30;;;;;;5048433;28;20226;-68
2023/07/04 08:31:11;;;;;;;26.70;5.60;;;26.60;46.20;;;;;;5037245;28;20222;-66
2023/07/04 08:33:38;;;;;;;26.40;5.70;;;26.60;46.10;;;;;;5027657;28;20237;-65
2023/07/04 08:36:08;;;;;;;29.40;6.30;;;26.60;46.20;;;;;;5018416;28;20299;-67
2023/07/04 08:38:36;;;;;;;37.87;6.87;;;26.60;46.10;;;;;;5035334;28;20665;-65
2023/07/04 08:41:04;;;;;;;29.90;6.07;;;26.60;46.10;;;;;;5025810;28;20209;-66
2023/07/04 08:43:37;;;;;;;26.87;5.77;;;26.60;46.10;;;;;;5045153;28;20231;-68
2023/07/04 08:46:06;;;;;;;27.03;5.53;;;26.60;46.00;;;;;;5026144;28;20288;-66
2023/07/04 08:48:34;;;;;;;29.40;5.67;;;26.70;46.00;;;;;;5031499;28;20300;-69
2023/07/04 08:51:04;;;;;;;29.70;6.43;;;26.70;46.00;;;;;;5025440;28;20669;-67
2023/07/04 08:53:32;;;;;;;22.67;5.60;;;26.70;46.00;;;;;;5031028;28;20209;-69
2023/07/04 08:56:08;;;;;;;23.47;5.57;;;26.70;46.00;;;;;;5020246;28;20217;-69
2023/07/04 08:58:41;;;;;;;25.40;5.30;;;26.70;45.80;;;;;;5030708;28;20212;-67
2023/07/04 09:01:15;;;;;;;24.17;5.13;;;26.70;45.80;;;;;;5023191;28;20209;-68
2023/07/04 09:03:55;;;;;;;27.03;5.60;;;26.70;45.80;;;;;;5011910;28;20239;-72
2023/07/04 09:06:30;;;;;;;23.80;5.57;;;26.80;45.90;;;;;;5011410;28;20293;-74
2023/07/04 09:09:06;;;;;;;27.47;6.20;;;26.80;45.90;;;;;;5011344;28;20975;-67
2023/07/04 09:11:35;;;;;;;44.47;7.47;;;26.80;45.90;;;;;;5020267;28;20210;-66
2023/07/04 09:14:07;;;;;;;32.57;6.10;;;26.80;45.90;;;;;;5030772;28;20249;-68
2023/07/04 09:16:39;;;;;;;48.60;7.53;;;26.80;45.80;;;;;;5024578;28;20205;-70
2023/07/04 09:19:08;;;;;;;23.33;5.70;;;26.80;45.80;;;;;;5026223;28;20213;-67
2023/07/04 09:21:36;;;;;;;28.47;6.17;;;26.80;45.80;;;;;;5029668;28;20577;-66
2023/07/04 09:24:04;;;;;;;30.03;6.03;;;26.80;45.80;;;;;;5011062;28;20709;-67
2023/07/04 09:26:39;;;;;;;17.43;4.97;;;26.90;45.90;;;;;;5027094;28;20209;-67
2023/07/04 09:29:07;;;;;;;30.73;6.10;;;26.90;45.80;;;;;;5031133;28;20193;-71
2023/07/04 09:31:37;;;;;;;26.90;6.13;;;26.90;45.80;;;;;;5029593;28;20270;-67
2023/07/04 09:34:10;;;;;;;32.37;6.63;;;26.90;45.80;;;;;;5018111;28;20233;-67
2023/07/04 09:36:39;;;;;;;32.73;6.23;;;26.90;45.80;;;;;;5013216;28;20225;-67
2023/07/04 09:39:06;;;;;;;69.97;9.37;;;27.00;45.80;;;;;;5026070;28;20204;-68
2023/07/04 09:41:36;;;;;;;27.30;6.27;;;27.00;46.40;;;;;;5027493;28;20212;-67
2023/07/04 09:44:14;;;;;;;34.90;6.70;;;27.00;45.80;;;;;;5029369;28;20221;-67
2023/07/04 09:46:48;;;;;;;32.97;6.40;;;27.10;45.80;;;;;;5028127;28;20284;-67
2023/07/04 09:49:24;;;;;;;26.90;6.30;;;27.10;45.80;;;;;;5026958;28;20619;-66
2023/07/04 09:52:02;;;;;;;23.23;5.37;;;27.10;45.50;;;;;;5028431;28;20205;-66
2023/07/04 09:54:31;;;;;;;37.10;7.00;;;27.10;45.40;;;;;;5026309;28;20266;-66
2023/07/04 09:57:17;;;;;;;39.07;6.73;;;27.10;45.60;;;;;;5029349;28;20587;-67
2023/07/04 09:59:45;;;;;;;20.83;5.40;;;27.20;45.70;;;;;;5039540;28;20219;-67
2023/07/04 10:02:19;;;;;;;38.07;6.70;;;27.20;45.70;;;;;;5049777;28;20207;-66
2023/07/04 10:04:50;;;;;;;27.27;5.77;;;27.30;45.60;;;;;;5024875;28;20196;-66
2023/07/04 10:07:19;;;;;;;22.17;5.70;;;27.20;45.70;;;;;;5027979;28;20208;-67
2023/07/04 10:09:52;;;;;;;27.70;6.13;;;27.30;45.70;;;;;;5018510;28;20213;-67
2023/07/04 10:12:21;;;;;;;30.97;6.20;;;27.30;45.70;;;;;;5022462;28;20696;-70
2023/07/04 10:14:50;;;;;;;37.37;7.10;;;27.30;45.70;;;;;;5016109;28;20221;-72
2023/07/04 10:17:19;;;;;;;36.70;7.47;;;27.30;45.70;;;;;;5026940;28;20208;-70
2023/07/04 10:19:48;;;;;;;30.07;5.90;;;27.40;45.70;;;;;;5009797;28;20210;-69
2023/07/04 10:22:24;;;;;;;47.53;8.07;;;27.40;45.80;;;;;;5010441;28;20210;-67
2023/07/04 10:24:52;;;;;;;33.70;6.63;;;27.40;45.80;;;;;;5025983;28;20653;-70
2023/07/04 10:27:22;;;;;;;34.60;6.87;;;27.40;45.80;;;;;;5028644;28;20201;-72
2023/07/04 10:29:54;;;;;;;34.27;7.33;;;27.50;45.90;;;;;;5029861;28;20201;-71
2023/07/04 10:32:23;;;;;;;37.80;7.07;;;27.50;45.80;;;;;;5029360;28;20591;-70
2023/07/04 10:34:51;;;;;;;24.57;6.03;;;27.50;45.70;;;;;;5029209;28;20223;-66
2023/07/04 10:37:23;;;;;;;26.27;6.23;;;27.60;45.70;;;;;;5029410;28;20217;-71
2023/07/04 10:39:54;;;;;;;27.30;6.23;;;27.60;45.70;;;;;;5027333;28;20205;-68
2023/07/04 10:42:29;;;;;;;30.67;6.73;;;27.70;45.70;;;;;;5027827;28;20201;-73
2023/07/04 10:44:58;;;;;;;32.10;7.20;;;27.70;45.70;;;;;;5029903;28;20207;-67
2023/07/04 10:47:31;;;;;;;33.33;7.17;;;27.80;45.80;;;;;;5021352;28;20665;-66
2023/07/04 10:50:03;;;;;;;34.80;7.27;;;27.80;45.80;;;;;;5040421;28;20208;-68
2023/07/04 10:52:34;;;;;;;39.30;7.50;;;27.80;45.70;;;;;;5035657;28;20209;-65
2023/07/04 10:55:02;;;;;;;33.87;7.30;;;27.80;45.60;;;;;;5020092;28;20561;-70
2023/07/04 10:57:36;;;;;;;27.03;6.70;;;27.90;45.60;;;;;;5009783;28;20620;-66
2023/07/04 11:00:10;;;;;;;31.70;6.87;;;27.90;45.60;;;;;;5034482;28;20203;-63
2023/07/04 11:02:41;;;;;;;30.57;7.00;;;28.00;45.70;;;;;;5040233;28;20235;-67
2023/07/04 11:05:14;;;;;;;27.20;6.57;;;28.00;45.60;;;;;;5049070;28;20214;-69
2023/07/04 11:07:44;;;;;;;35.73;7.50;;;28.10;45.70;;;;;;5041123;28;20231;-65
2023/07/04 11:10:14;;;;;;;23.97;6.63;;;28.10;45.70;;;;;;5048095;28;20204;-63
2023/07/04 11:12:42;;;;;;;29.47;7.30;;;28.20;45.70;;;;;;5046928;28;20211;-66
2023/07/04 11:15:22;;;;;;;30.70;6.80;;;28.20;45.70;;;;;;5027913;28;20595;-70
2023/07/04 11:17:50;;;;;;;32.13;7.20;;;28.30;45.70;;;;;;5027799;28;20715;-67
2023/07/04 11:20:21;;;;;;;27.47;7.13;;;28.30;45.60;;;;;;5028669;28;20205;-65
2023/07/04 11:23:00;;;;;;;32.27;6.87;;;28.40;45.50;;;;;;5033266;28;20222;-68
2023/07/04 11:25:31;;;;;;;23.07;6.23;;;28.50;45.60;;;;;;5049053;28;20195;-69
2023/07/04 11:28:18;;;;;;;43.70;8.13;;;28.50;45.60;;;;;;5029670;28;20292;-71
2023/07/04 11:30:48;;;;;;;25.17;6.20;;;28.60;45.60;;;;;;5008858;28;20204;-67
2023/07/04 11:33:42;;;;;;;36.37;7.63;;;28.70;45.20;;;;;;5012764;28;20209;-70
2023/07/04 11:36:17;;;;;;;21.17;6.43;;;28.80;45.30;;;;;;5010556;28;20272;-65
2023/07/04 11:38:58;;;;;;;26.63;6.30;;;28.80;45.30;;;;;;5032357;28;20200;-65
2023/07/04 11:41:30;;;;;;;27.40;6.63;;;29.00;45.20;;;;;;5032716;28;20218;-65
2023/07/04 11:44:00;;;;;;;32.33;7.00;;;29.00;44.80;;;;;;5046088;28;20231;-64
2023/07/04 11:46:29;;;;;;;26.83;6.50;;;29.10;44.90;;;;;;5047284;28;20687;-67
2023/07/04 11:48:58;;;;;;;38.30;7.63;;;29.10;44.90;;;;;;5048120;28;20322;-65
2023/07/04 11:51:29;;;;;;;36.97;7.47;;;29.20;44.80;;;;;;5033055;28;20239;-67
2023/07/04 11:53:58;;;;;;;30.70;7.80;;;29.20;44.70;;;;;;5028624;28;20300;-67
2023/07/04 11:56:41;;;;;;;28.23;6.53;;;29.20;44.30;;;;;;5040086;28;20739;-68
2023/07/04 11:59:38;;;;;;;31.10;6.77;;;29.30;44.10;;;;;;5008515;28;20240;-67
2023/07/04 12:02:25;;;;;;;35.00;7.23;;;29.30;44.00;;;;;;5034836;28;20204;-69
2023/07/04 12:04:52;;;;;;;31.60;6.93;;;29.40;44.10;;;;;;5031879;28;20645;-67
2023/07/04 12:07:28;;;;;;;30.03;7.27;;;29.40;44.10;;;;;;5041190;28;20675;-67
2023/07/04 12:10:02;;;;;;;30.10;6.83;;;29.30;44.10;;;;;;5020260;28;20212;-67
2023/07/04 12:12:32;;;;;;;23.57;5.73;;;29.30;44.00;;;;;;5032351;28;20199;-67
2023/07/04 12:15:08;;;;;;;24.87;6.33;;;29.40;44.00;;;;;;5025915;28;20292;-69
2023/07/04 12:17:39;;;;;;;32.43;7.03;;;29.30;44.00;;;;;;5032675;28;20208;-67
2023/07/04 12:20:11;;;;;;;38.43;7.27;;;29.30;43.90;;;;;;5026263;28;20291;-68
2023/07/04 12:22:43;;;;;;;22.60;5.97;;;29.30;44.10;;;;;;5046225;28;20207;-67
2023/07/04 12:25:12;;;;;;;27.70;6.60;;;29.30;44.00;;;;;;5016758;28;20211;-67
2023/07/04 12:27:42;;;;;;;23.93;5.93;;;29.30;44.00;;;;;;5008132;28;20185;-68
2023/07/04 12:30:14;;;;;;;21.80;5.73;;;29.30;44.00;;;;;;5021609;28;20211;-66
2023/07/04 12:32:42;;;;;;;21.97;6.13;;;29.30;44.10;;;;;;5040770;28;20212;-67
2023/07/04 12:35:15;;;;;;;41.17;7.53;;;29.40;44.10;;;;;;5020107;28;20201;-67
2023/07/04 12:37:49;;;;;;;25.80;6.00;;;29.40;44.00;;;;;;5007873;28;20215;-66
2023/07/04 12:40:18;;;;;;;41.33;7.70;;;29.50;43.80;;;;;;5019695;28;20209;-68
2023/07/04 12:42:47;;;;;;;23.73;5.93;;;29.60;43.90;;;;;;5043160;28;20227;-67
2023/07/04 12:45:20;;;;;;;26.67;6.37;;;29.60;43.90;;;;;;5044782;28;20203;-67
2023/07/04 12:47:48;;;;;;;35.63;7.40;;;29.70;43.30;;;;;;5022828;28;20197;-67